sensor_id;sensor_type;location;lat;lon;timestamp;temperature;humidity
3756;DHT22;1893;52.526;13.360;2023-06-26T00:00:19;20.40;99.90
3756;DHT22;1893;52.526;13.360;2023-06-26T00:02:45;20.50;99.90
3756;DHT22;1893;52.526;13.360;2023-06-26T00:05:11;20.50;99.90
3756;DHT22;1893;52.526;13.360;2023-06-26T00:07:37;20.50;1.00
3756;DHT22;1893;52.526;13.360;2023-06-26T00:10:03;20.50;1.00
3756;DHT22;1893;52.526;13.360;2023-06-26T00:12:30;20.40;1.00
3756;DHT22;1893;52.526;13.360;2023-06-26T00:14:56;20.40;1.00
3756;DHT22;1893;52.526;13.360;2023-06-26T00:17:22;20.40;1.00
3756;DHT22;1893;52.526;13.360;2023-06-26T00:19:48;20.30;1.00
3756;DHT22;1893;52.526;13.360;2023-06-26T00:22:14;20.30;1.00
3756;DHT22;1893;52.526;13.360;2023-06-26T00:24:40;20.30;1.00
3756;DHT22;1893;52.526;13.360;2023-06-26T00:27:06;20.30;1.00
3756;DHT22;1893;52.526;13.360;2023-06-26T00:29:31;20.30;1.00
3756;DHT22;1893;52.526;13.360;2023-06-26T00:31:57;20.30;53.20
3756;DHT22;1893;52.526;13.360;2023-06-26T00:34:22;20.20;71.00
3756;DHT22;1893;52.526;13.360;2023-06-26T00:36:48;20.20;99.90
3756;DHT22;1893;52.526;13.360;2023-06-26T00:39:14;20.10;99.90
3756;DHT22;1893;52.526;13.360;2023-06-26T00:41:39;20.10;99.90
3756;DHT22;1893;52.526;13.360;2023-06-26T00:44:05;20.10;99.90
3756;DHT22;1893;52.526;13.360;2023-06-26T00:46:31;20.10;99.90
3756;DHT22;1893;52.526;13.360;2023-06-26T00:48:59;20.10;99.90
3756;DHT22;1893;52.526;13.360;2023-06-26T00:51:29;20.10;99.90
3756;DHT22;1893;52.526;13.360;2023-06-26T00:53:55;20.10;99.90
3756;DHT22;1893;52.526;13.360;2023-06-26T00:56:22;20.10;99.90
3756;DHT22;1893;52.526;13.360;2023-06-26T00:58:48;20.10;99.90
3756;DHT22;1893;52.526;13.360;2023-06-26T01:01:13;20.10;99.90
3756;DHT22;1893;52.526;13.360;2023-06-26T01:03:46;20.10;15.90
3756;DHT22;1893;52.526;13.360;2023-06-26T01:06:18;20.20;1.00
3756;DHT22;1893;52.526;13.360;2023-06-26T01:08:44;20.30;1.00
3756;DHT22;1893;52.526;13.360;2023-06-26T01:11:11;20.30;17.30
3756;DHT22;1893;52.526;13.360;2023-06-26T01:13:39;20.30;99.90
3756;DHT22;1893;52.526;13.360;2023-06-26T01:16:05;20.30;99.90
3756;DHT22;1893;52.526;13.360;2023-06-26T01:18:32;20.30;55.50
3756;DHT22;1893;52.526;13.360;2023-06-26T01:20:58;20.30;1.00
3756;DHT22;1893;52.526;13.360;2023-06-26T01:24:20;20.30;1.00
3756;DHT22;1893;52.526;13.360;2023-06-26T01:26:31;20.40;1.00
3756;DHT22;1893;52.526;13.360;2023-06-26T01:29:03;20.40;99.90
3756;DHT22;1893;52.526;13.360;2023-06-26T01:31:30;20.50;99.90
3756;DHT22;1893;52.526;13.360;2023-06-26T01:33:58;20.50;1.00
3756;DHT22;1893;52.526;13.360;2023-06-26T01:36:24;20.50;1.00
3756;DHT22;1893;52.526;13.360;2023-06-26T01:38:50;20.40;1.00
3756;DHT22;1893;52.526;13.360;2023-06-26T01:41:17;20.40;1.00
3756;DHT22;1893;52.526;13.360;2023-06-26T01:49:16;20.50;99.90
3756;DHT22;1893;52.526;13.360;2023-06-26T01:51:48;20.50;1.00
3756;DHT22;1893;52.526;13.360;2023-06-26T01:54:18;20.40;1.00
3756;DHT22;1893;52.526;13.360;2023-06-26T01:56:45;20.40;1.00
3756;DHT22;1893;52.526;13.360;2023-06-26T01:59:13;20.30;1.00
3756;DHT22;1893;52.526;13.360;2023-06-26T02:01:40;20.30;1.00
3756;DHT22;1893;52.526;13.360;2023-06-26T02:04:06;20.30;1.00
3756;DHT22;1893;52.526;13.360;2023-06-26T02:06:31;20.30;1.00
3756;DHT22;1893;52.526;13.360;2023-06-26T02:08:57;20.30;1.00
3756;DHT22;1893;52.526;13.360;2023-06-26T02:11:23;20.30;1.00
3756;DHT22;1893;52.526;13.360;2023-06-26T02:13:49;20.30;42.90
3756;DHT22;1893;52.526;13.360;2023-06-26T02:16:14;20.30;1.00
3756;DHT22;1893;52.526;13.360;2023-06-26T02:18:40;20.30;70.50
3756;DHT22;1893;52.526;13.360;2023-06-26T02:21:07;20.30;75.40
3756;DHT22;1893;52.526;13.360;2023-06-26T02:23:32;20.30;3.90
3756;DHT22;1893;52.526;13.360;2023-06-26T02:25:58;20.30;1.00
3756;DHT22;1893;52.526;13.360;2023-06-26T02:28:23;20.40;1.00
3756;DHT22;1893;52.526;13.360;2023-06-26T02:30:49;20.40;99.90
3756;DHT22;1893;52.526;13.360;2023-06-26T02:33:15;20.50;99.90
3756;DHT22;1893;52.526;13.360;2023-06-26T02:35:40;20.40;99.90
3756;DHT22;1893;52.526;13.360;2023-06-26T02:38:06;20.40;67.80
3756;DHT22;1893;52.526;13.360;2023-06-26T02:40:32;20.40;25.60
3756;DHT22;1893;52.526;13.360;2023-06-26T02:42:58;20.40;93.90
3756;DHT22;1893;52.526;13.360;2023-06-26T02:45:24;20.40;99.90
3756;DHT22;1893;52.526;13.360;2023-06-26T02:47:49;20.40;1.00
3756;DHT22;1893;52.526;13.360;2023-06-26T02:50:15;20.30;99.90
3756;DHT22;1893;52.526;13.360;2023-06-26T02:52:41;20.30;99.90
3756;DHT22;1893;52.526;13.360;2023-06-26T02:55:06;20.30;99.90
3756;DHT22;1893;52.526;13.360;2023-06-26T02:57:32;20.30;1.00
3756;DHT22;1893;52.526;13.360;2023-06-26T02:59:57;20.20;1.00
3756;DHT22;1893;52.526;13.360;2023-06-26T03:02:23;20.10;82.20
3756;DHT22;1893;52.526;13.360;2023-06-26T03:04:49;20.10;99.90
3756;DHT22;1893;52.526;13.360;2023-06-26T03:07:15;20.10;88.50
3756;DHT22;1893;52.526;13.360;2023-06-26T03:09:41;20.10;99.90
3756;DHT22;1893;52.526;13.360;2023-06-26T03:12:07;20.10;67.70
3756;DHT22;1893;52.526;13.360;2023-06-26T03:14:33;20.10;99.90
3756;DHT22;1893;52.526;13.360;2023-06-26T03:16:59;20.10;99.90
3756;DHT22;1893;52.526;13.360;2023-06-26T03:19:28;20.00;99.90
3756;DHT22;1893;52.526;13.360;2023-06-26T03:21:54;20.00;99.90
3756;DHT22;1893;52.526;13.360;2023-06-26T03:24:20;20.10;99.90
3756;DHT22;1893;52.526;13.360;2023-06-26T03:26:46;20.10;99.90
3756;DHT22;1893;52.526;13.360;2023-06-26T03:29:11;20.00;99.90
3756;DHT22;1893;52.526;13.360;2023-06-26T03:31:37;20.00;99.90
3756;DHT22;1893;52.526;13.360;2023-06-26T03:34:03;20.00;99.90
3756;DHT22;1893;52.526;13.360;2023-06-26T03:36:28;20.00;99.90
3756;DHT22;1893;52.526;13.360;2023-06-26T03:38:54;20.00;99.90
3756;DHT22;1893;52.526;13.360;2023-06-26T03:41:22;19.90;99.90
3756;DHT22;1893;52.526;13.360;2023-06-26T03:43:48;19.90;45.70
3756;DHT22;1893;52.526;13.360;2023-06-26T03:46:14;20.00;1.00
3756;DHT22;1893;52.526;13.360;2023-06-26T03:48:40;20.00;1.00
3756;DHT22;1893;52.526;13.360;2023-06-26T03:51:06;20.10;1.00
3756;DHT22;1893;52.526;13.360;2023-06-26T03:53:33;20.10;1.00
3756;DHT22;1893;52.526;13.360;2023-06-26T03:55:58;20.10;99.90
3756;DHT22;1893;52.526;13.360;2023-06-26T03:58:24;20.20;11.90
3756;DHT22;1893;52.526;13.360;2023-06-26T04:00:50;20.30;1.00
3756;DHT22;1893;52.526;13.360;2023-06-26T04:03:16;20.40;1.00
3756;DHT22;1893;52.526;13.360;2023-06-26T04:05:42;20.40;99.90
3756;DHT22;1893;52.526;13.360;2023-06-26T04:08:08;20.50;1.00
3756;DHT22;1893;52.526;13.360;2023-06-26T04:10:33;20.60;1.00
3756;DHT22;1893;52.526;13.360;2023-06-26T04:12:59;20.60;1.00
3756;DHT22;1893;52.526;13.360;2023-06-26T04:15:25;20.60;1.00
3756;DHT22;1893;52.526;13.360;2023-06-26T04:17:50;20.60;1.00
3756;DHT22;1893;52.526;13.360;2023-06-26T04:20:16;20.70;1.00
3756;DHT22;1893;52.526;13.360;2023-06-26T04:22:41;20.70;27.40
3756;DHT22;1893;52.526;13.360;2023-06-26T04:25:07;20.70;1.00
3756;DHT22;1893;52.526;13.360;2023-06-26T04:27:33;20.70;1.00
3756;DHT22;1893;52.526;13.360;2023-06-26T04:29:59;20.70;1.00
3756;DHT22;1893;52.526;13.360;2023-06-26T04:32:24;20.80;1.00
3756;DHT22;1893;52.526;13.360;2023-06-26T04:34:50;20.80;1.00
3756;DHT22;1893;52.526;13.360;2023-06-26T04:37:16;20.80;99.90
3756;DHT22;1893;52.526;13.360;2023-06-26T04:39:44;20.80;99.90
3756;DHT22;1893;52.526;13.360;2023-06-26T04:42:10;20.80;99.90
3756;DHT22;1893;52.526;13.360;2023-06-26T04:44:39;20.80;99.90
3756;DHT22;1893;52.526;13.360;2023-06-26T04:47:06;20.80;1.00
3756;DHT22;1893;52.526;13.360;2023-06-26T04:49:32;20.80;1.00
3756;DHT22;1893;52.526;13.360;2023-06-26T04:51:58;20.80;1.00
3756;DHT22;1893;52.526;13.360;2023-06-26T04:54:26;20.80;1.00
3756;DHT22;1893;52.526;13.360;2023-06-26T04:56:52;20.80;1.00
3756;DHT22;1893;52.526;13.360;2023-06-26T04:59:18;20.90;1.00
3756;DHT22;1893;52.526;13.360;2023-06-26T05:01:44;20.90;1.00
3756;DHT22;1893;52.526;13.360;2023-06-26T05:04:13;21.00;1.00
3756;DHT22;1893;52.526;13.360;2023-06-26T05:06:40;21.10;1.00
3756;DHT22;1893;52.526;13.360;2023-06-26T05:09:06;21.30;1.00
3756;DHT22;1893;52.526;13.360;2023-06-26T05:11:33;21.40;1.00
3756;DHT22;1893;52.526;13.360;2023-06-26T05:13:59;21.50;99.90
3756;DHT22;1893;52.526;13.360;2023-06-26T05:16:24;21.60;99.90
3756;DHT22;1893;52.526;13.360;2023-06-26T05:18:50;21.70;11.00
3756;DHT22;1893;52.526;13.360;2023-06-26T05:21:16;21.70;1.00
3756;DHT22;1893;52.526;13.360;2023-06-26T05:23:42;21.60;1.00
3756;DHT22;1893;52.526;13.360;2023-06-26T05:26:10;21.70;1.00
3756;DHT22;1893;52.526;13.360;2023-06-26T05:28:37;21.70;1.00
3756;DHT22;1893;52.526;13.360;2023-06-26T05:31:03;21.70;1.00
3756;DHT22;1893;52.526;13.360;2023-06-26T05:33:30;21.60;1.00
3756;DHT22;1893;52.526;13.360;2023-06-26T05:35:56;21.70;1.00
3756;DHT22;1893;52.526;13.360;2023-06-26T05:38:24;21.60;1.00
3756;DHT22;1893;52.526;13.360;2023-06-26T05:40:50;21.60;1.00
3756;DHT22;1893;52.526;13.360;2023-06-26T05:43:16;21.60;1.00
3756;DHT22;1893;52.526;13.360;2023-06-26T05:45:46;21.70;1.00
3756;DHT22;1893;52.526;13.360;2023-06-26T05:48:12;21.80;1.00
3756;DHT22;1893;52.526;13.360;2023-06-26T05:50:38;22.00;1.00
3756;DHT22;1893;52.526;13.360;2023-06-26T05:53:06;22.10;1.00
3756;DHT22;1893;52.526;13.360;2023-06-26T05:55:32;22.20;1.00
3756;DHT22;1893;52.526;13.360;2023-06-26T05:57:58;22.30;99.90
3756;DHT22;1893;52.526;13.360;2023-06-26T06:00:25;22.40;99.90
3756;DHT22;1893;52.526;13.360;2023-06-26T06:02:52;22.50;99.90
3756;DHT22;1893;52.526;13.360;2023-06-26T06:05:22;22.60;99.90
3756;DHT22;1893;52.526;13.360;2023-06-26T06:07:48;22.70;99.90
3756;DHT22;1893;52.526;13.360;2023-06-26T06:10:14;22.80;99.90
3756;DHT22;1893;52.526;13.360;2023-06-26T06:12:39;23.00;1.00
3756;DHT22;1893;52.526;13.360;2023-06-26T06:15:06;23.00;1.00
3756;DHT22;1893;52.526;13.360;2023-06-26T06:17:31;23.10;1.00
3756;DHT22;1893;52.526;13.360;2023-06-26T06:19:57;23.10;1.00
3756;DHT22;1893;52.526;13.360;2023-06-26T06:22:23;23.20;1.00
3756;DHT22;1893;52.526;13.360;2023-06-26T06:24:50;23.30;1.00
3756;DHT22;1893;52.526;13.360;2023-06-26T06:27:16;23.50;1.00
3756;DHT22;1893;52.526;13.360;2023-06-26T06:29:41;23.60;99.90
3756;DHT22;1893;52.526;13.360;2023-06-26T06:32:07;23.80;1.00
3756;DHT22;1893;52.526;13.360;2023-06-26T06:34:33;23.90;99.90
3756;DHT22;1893;52.526;13.360;2023-06-26T06:36:59;24.00;99.90
3756;DHT22;1893;52.526;13.360;2023-06-26T06:39:24;24.10;99.90
3756;DHT22;1893;52.526;13.360;2023-06-26T06:41:50;24.20;99.90
3756;DHT22;1893;52.526;13.360;2023-06-26T06:44:16;24.10;99.90
3756;DHT22;1893;52.526;13.360;2023-06-26T06:46:41;24.10;99.90
3756;DHT22;1893;52.526;13.360;2023-06-26T06:49:08;24.30;99.90
3756;DHT22;1893;52.526;13.360;2023-06-26T06:51:34;24.40;53.10
3756;DHT22;1893;52.526;13.360;2023-06-26T06:53:59;24.30;5.90
3756;DHT22;1893;52.526;13.360;2023-06-26T06:56:26;24.50;1.00
3756;DHT22;1893;52.526;13.360;2023-06-26T06:58:51;24.60;1.00
3756;DHT22;1893;52.526;13.360;2023-06-26T07:01:17;24.70;1.00
3756;DHT22;1893;52.526;13.360;2023-06-26T07:03:43;24.60;1.00
3756;DHT22;1893;52.526;13.360;2023-06-26T07:06:08;24.70;1.00
3756;DHT22;1893;52.526;13.360;2023-06-26T07:08:34;24.70;1.00
3756;DHT22;1893;52.526;13.360;2023-06-26T07:11:00;24.80;1.00
3756;DHT22;1893;52.526;13.360;2023-06-26T07:13:26;24.80;1.00
3756;DHT22;1893;52.526;13.360;2023-06-26T07:15:52;24.90;1.00
3756;DHT22;1893;52.526;13.360;2023-06-26T07:18:18;25.10;1.00
3756;DHT22;1893;52.526;13.360;2023-06-26T07:20:43;25.10;1.00
3756;DHT22;1893;52.526;13.360;2023-06-26T07:23:09;25.30;1.00
3756;DHT22;1893;52.526;13.360;2023-06-26T07:25:35;25.40;1.00
3756;DHT22;1893;52.526;13.360;2023-06-26T07:28:01;25.50;1.00
3756;DHT22;1893;52.526;13.360;2023-06-26T07:30:27;25.50;1.00
3756;DHT22;1893;52.526;13.360;2023-06-26T07:32:52;25.50;1.00
3756;DHT22;1893;52.526;13.360;2023-06-26T07:35:18;25.60;1.00
3756;DHT22;1893;52.526;13.360;2023-06-26T07:37:44;25.70;1.00
3756;DHT22;1893;52.526;13.360;2023-06-26T07:40:10;25.80;1.00
3756;DHT22;1893;52.526;13.360;2023-06-26T07:42:36;26.00;1.00
3756;DHT22;1893;52.526;13.360;2023-06-26T07:45:02;26.10;1.00
3756;DHT22;1893;52.526;13.360;2023-06-26T07:47:30;26.10;1.00
3756;DHT22;1893;52.526;13.360;2023-06-26T07:49:56;26.10;1.00
3756;DHT22;1893;52.526;13.360;2023-06-26T07:52:21;26.20;1.00
3756;DHT22;1893;52.526;13.360;2023-06-26T07:54:47;26.40;1.00
3756;DHT22;1893;52.526;13.360;2023-06-26T07:57:12;26.60;1.00
3756;DHT22;1893;52.526;13.360;2023-06-26T07:59:38;26.60;1.00
3756;DHT22;1893;52.526;13.360;2023-06-26T08:02:04;26.70;1.00
3756;DHT22;1893;52.526;13.360;2023-06-26T08:04:31;26.90;1.00
3756;DHT22;1893;52.526;13.360;2023-06-26T08:06:58;27.00;1.00
3756;DHT22;1893;52.526;13.360;2023-06-26T08:09:27;27.10;1.00
3756;DHT22;1893;52.526;13.360;2023-06-26T08:11:54;27.10;1.00
3756;DHT22;1893;52.526;13.360;2023-06-26T08:14:19;27.10;1.00
3756;DHT22;1893;52.526;13.360;2023-06-26T08:16:47;27.00;1.00
3756;DHT22;1893;52.526;13.360;2023-06-26T08:19:14;27.10;1.00
3756;DHT22;1893;52.526;13.360;2023-06-26T08:21:40;27.00;1.00
3756;DHT22;1893;52.526;13.360;2023-06-26T08:24:06;26.70;1.00
3756;DHT22;1893;52.526;13.360;2023-06-26T08:26:32;26.80;1.00
3756;DHT22;1893;52.526;13.360;2023-06-26T08:28:58;26.90;1.00
3756;DHT22;1893;52.526;13.360;2023-06-26T08:31:23;27.20;1.00
3756;DHT22;1893;52.526;13.360;2023-06-26T08:33:49;27.40;1.00
3756;DHT22;1893;52.526;13.360;2023-06-26T08:36:14;27.30;1.00
3756;DHT22;1893;52.526;13.360;2023-06-26T08:38:41;27.40;1.00
3756;DHT22;1893;52.526;13.360;2023-06-26T08:41:07;27.50;1.00
3756;DHT22;1893;52.526;13.360;2023-06-26T08:43:34;27.50;1.00
3756;DHT22;1893;52.526;13.360;2023-06-26T08:46:00;27.70;1.00
3756;DHT22;1893;52.526;13.360;2023-06-26T08:48:26;27.80;1.00
3756;DHT22;1893;52.526;13.360;2023-06-26T08:50:54;28.00;1.00
3756;DHT22;1893;52.526;13.360;2023-06-26T08:53:32;28.20;1.00
3756;DHT22;1893;52.526;13.360;2023-06-26T08:55:59;28.30;1.00
3756;DHT22;1893;52.526;13.360;2023-06-26T08:58:25;28.20;1.00
3756;DHT22;1893;52.526;13.360;2023-06-26T09:00:51;28.10;1.00
3756;DHT22;1893;52.526;13.360;2023-06-26T09:03:17;28.20;1.00
3756;DHT22;1893;52.526;13.360;2023-06-26T09:05:43;28.00;1.00
3756;DHT22;1893;52.526;13.360;2023-06-26T09:08:08;28.00;1.00
3756;DHT22;1893;52.526;13.360;2023-06-26T09:10:36;28.10;1.00
3756;DHT22;1893;52.526;13.360;2023-06-26T09:13:02;28.20;1.00
3756;DHT22;1893;52.526;13.360;2023-06-26T09:15:46;28.20;1.00
3756;DHT22;1893;52.526;13.360;2023-06-26T09:18:13;28.30;1.00
3756;DHT22;1893;52.526;13.360;2023-06-26T09:20:38;28.50;1.00
3756;DHT22;1893;52.526;13.360;2023-06-26T09:23:04;28.60;1.00
3756;DHT22;1893;52.526;13.360;2023-06-26T09:25:30;28.70;1.00
3756;DHT22;1893;52.526;13.360;2023-06-26T09:27:56;28.60;1.00
3756;DHT22;1893;52.526;13.360;2023-06-26T09:30:22;28.90;1.00
3756;DHT22;1893;52.526;13.360;2023-06-26T09:32:48;29.00;1.00
3756;DHT22;1893;52.526;13.360;2023-06-26T09:35:16;28.90;1.00
3756;DHT22;1893;52.526;13.360;2023-06-26T09:37:42;28.60;1.00
3756;DHT22;1893;52.526;13.360;2023-06-26T09:40:08;28.60;1.00
3756;DHT22;1893;52.526;13.360;2023-06-26T09:42:35;28.70;1.00
3756;DHT22;1893;52.526;13.360;2023-06-26T09:45:01;29.20;1.00
3756;DHT22;1893;52.526;13.360;2023-06-26T09:47:31;29.50;1.00
3756;DHT22;1893;52.526;13.360;2023-06-26T09:49:59;29.70;1.00
3756;DHT22;1893;52.526;13.360;2023-06-26T09:52:26;29.70;1.00
3756;DHT22;1893;52.526;13.360;2023-06-26T09:55:07;30.10;1.00
3756;DHT22;1893;52.526;13.360;2023-06-26T09:57:34;30.60;1.00
3756;DHT22;1893;52.526;13.360;2023-06-26T10:00:01;30.80;1.00
3756;DHT22;1893;52.526;13.360;2023-06-26T10:02:27;30.80;1.00
3756;DHT22;1893;52.526;13.360;2023-06-26T10:04:52;31.30;1.00
3756;DHT22;1893;52.526;13.360;2023-06-26T10:07:18;31.50;1.00
3756;DHT22;1893;52.526;13.360;2023-06-26T10:09:46;32.00;1.00
3756;DHT22;1893;52.526;13.360;2023-06-26T10:12:19;32.90;1.00
3756;DHT22;1893;52.526;13.360;2023-06-26T10:14:46;33.00;1.00
3756;DHT22;1893;52.526;13.360;2023-06-26T10:17:16;33.10;1.00
3756;DHT22;1893;52.526;13.360;2023-06-26T10:19:44;33.10;1.00
3756;DHT22;1893;52.526;13.360;2023-06-26T10:22:12;33.50;1.00
3756;DHT22;1893;52.526;13.360;2023-06-26T10:24:40;33.50;1.00
3756;DHT22;1893;52.526;13.360;2023-06-26T10:27:16;32.90;1.00
3756;DHT22;1893;52.526;13.360;2023-06-26T10:29:48;33.50;1.00
3756;DHT22;1893;52.526;13.360;2023-06-26T10:32:15;33.40;1.00
3756;DHT22;1893;52.526;13.360;2023-06-26T10:34:42;33.70;1.00
3756;DHT22;1893;52.526;13.360;2023-06-26T10:37:08;34.40;1.00
3756;DHT22;1893;52.526;13.360;2023-06-26T10:39:47;35.10;1.00
3756;DHT22;1893;52.526;13.360;2023-06-26T10:42:14;34.90;1.00
3756;DHT22;1893;52.526;13.360;2023-06-26T10:44:43;34.90;1.00
3756;DHT22;1893;52.526;13.360;2023-06-26T10:47:13;34.90;1.00
3756;DHT22;1893;52.526;13.360;2023-06-26T10:49:53;34.90;1.00
3756;DHT22;1893;52.526;13.360;2023-06-26T10:52:19;34.70;1.00
3756;DHT22;1893;52.526;13.360;2023-06-26T10:54:45;35.20;1.00
3756;DHT22;1893;52.526;13.360;2023-06-26T10:57:10;35.10;1.00
3756;DHT22;1893;52.526;13.360;2023-06-26T10:59:39;33.70;1.00
3756;DHT22;1893;52.526;13.360;2023-06-26T11:02:06;32.10;1.00
3756;DHT22;1893;52.526;13.360;2023-06-26T11:04:47;31.20;99.90
3756;DHT22;1893;52.526;13.360;2023-06-26T11:07:23;32.20;1.00
3756;DHT22;1893;52.526;13.360;2023-06-26T11:12:37;34.00;1.00
3756;DHT22;1893;52.526;13.360;2023-06-26T11:15:07;34.50;1.00
3756;DHT22;1893;52.526;13.360;2023-06-26T11:17:34;34.80;1.00
3756;DHT22;1893;52.526;13.360;2023-06-26T11:20:00;33.90;1.00
3756;DHT22;1893;52.526;13.360;2023-06-26T11:22:27;33.90;99.90
3756;DHT22;1893;52.526;13.360;2023-06-26T11:24:53;34.30;1.00
3756;DHT22;1893;52.526;13.360;2023-06-26T11:27:19;34.60;99.90
3756;DHT22;1893;52.526;13.360;2023-06-26T11:29:49;34.30;99.90
3756;DHT22;1893;52.526;13.360;2023-06-26T11:32:17;34.00;99.90
3756;DHT22;1893;52.526;13.360;2023-06-26T11:34:43;33.80;99.90
3756;DHT22;1893;52.526;13.360;2023-06-26T11:37:09;33.90;99.90
3756;DHT22;1893;52.526;13.360;2023-06-26T11:39:35;33.90;99.90
3756;DHT22;1893;52.526;13.360;2023-06-26T11:42:02;33.90;99.90
3756;DHT22;1893;52.526;13.360;2023-06-26T11:44:31;33.00;99.90
3756;DHT22;1893;52.526;13.360;2023-06-26T11:46:57;32.40;99.90
3756;DHT22;1893;52.526;13.360;2023-06-26T11:49:24;32.20;99.90
3756;DHT22;1893;52.526;13.360;2023-06-26T11:51:52;32.00;99.90
3756;DHT22;1893;52.526;13.360;2023-06-26T11:54:26;32.10;99.90
3756;DHT22;1893;52.526;13.360;2023-06-26T11:56:57;31.90;99.90
3756;DHT22;1893;52.526;13.360;2023-06-26T11:59:23;31.70;99.90
3756;DHT22;1893;52.526;13.360;2023-06-26T12:01:50;31.60;99.90
3756;DHT22;1893;52.526;13.360;2023-06-26T12:04:18;31.60;99.90
3756;DHT22;1893;52.526;13.360;2023-06-26T12:06:52;32.00;99.90
3756;DHT22;1893;52.526;13.360;2023-06-26T12:09:19;31.90;99.90
3756;DHT22;1893;52.526;13.360;2023-06-26T12:11:47;31.80;99.90
3756;DHT22;1893;52.526;13.360;2023-06-26T12:14:14;31.80;99.90
3756;DHT22;1893;52.526;13.360;2023-06-26T12:16:40;31.60;99.90
3756;DHT22;1893;52.526;13.360;2023-06-26T12:19:07;31.60;99.90
3756;DHT22;1893;52.526;13.360;2023-06-26T12:24:00;31.40;99.90
3756;DHT22;1893;52.526;13.360;2023-06-26T12:26:27;31.60;99.90
3756;DHT22;1893;52.526;13.360;2023-06-26T12:29:03;31.30;99.90
3756;DHT22;1893;52.526;13.360;2023-06-26T12:31:29;31.00;99.90
3756;DHT22;1893;52.526;13.360;2023-06-26T12:33:56;30.90;99.90
3756;DHT22;1893;52.526;13.360;2023-06-26T12:36:22;30.70;99.90
3756;DHT22;1893;52.526;13.360;2023-06-26T12:38:48;31.00;99.90
3756;DHT22;1893;52.526;13.360;2023-06-26T12:41:15;31.50;99.90
3756;DHT22;1893;52.526;13.360;2023-06-26T12:43:41;31.80;99.90
3756;DHT22;1893;52.526;13.360;2023-06-26T12:46:07;32.00;99.90
3756;DHT22;1893;52.526;13.360;2023-06-26T12:48:43;32.20;99.90
3756;DHT22;1893;52.526;13.360;2023-06-26T12:51:11;32.00;99.90
3756;DHT22;1893;52.526;13.360;2023-06-26T12:53:37;31.60;99.90
3756;DHT22;1893;52.526;13.360;2023-06-26T12:56:06;31.60;99.90
3756;DHT22;1893;52.526;13.360;2023-06-26T12:58:32;31.60;99.90
3756;DHT22;1893;52.526;13.360;2023-06-26T13:00:58;31.20;99.90
3756;DHT22;1893;52.526;13.360;2023-06-26T13:03:23;31.00;99.90
3756;DHT22;1893;52.526;13.360;2023-06-26T13:05:49;31.00;99.90
3756;DHT22;1893;52.526;13.360;2023-06-26T13:08:16;30.80;99.90
3756;DHT22;1893;52.526;13.360;2023-06-26T13:10:43;30.70;99.90
3756;DHT22;1893;52.526;13.360;2023-06-26T13:13:10;30.60;99.90
3756;DHT22;1893;52.526;13.360;2023-06-26T13:15:36;30.50;99.90
3756;DHT22;1893;52.526;13.360;2023-06-26T13:18:01;30.40;99.90
3756;DHT22;1893;52.526;13.360;2023-06-26T13:20:27;30.20;99.90
3756;DHT22;1893;52.526;13.360;2023-06-26T13:22:53;30.10;99.90
3756;DHT22;1893;52.526;13.360;2023-06-26T13:25:20;30.00;99.90
3756;DHT22;1893;52.526;13.360;2023-06-26T13:27:46;30.00;99.90
3756;DHT22;1893;52.526;13.360;2023-06-26T13:30:12;29.90;99.90
3756;DHT22;1893;52.526;13.360;2023-06-26T13:32:38;29.80;99.90
3756;DHT22;1893;52.526;13.360;2023-06-26T13:35:04;29.70;99.90
3756;DHT22;1893;52.526;13.360;2023-06-26T13:37:30;29.60;99.90
3756;DHT22;1893;52.526;13.360;2023-06-26T13:39:55;29.70;99.90
3756;DHT22;1893;52.526;13.360;2023-06-26T13:42:23;29.70;99.90
3756;DHT22;1893;52.526;13.360;2023-06-26T13:44:48;29.60;99.90
3756;DHT22;1893;52.526;13.360;2023-06-26T13:47:15;29.60;99.90
3756;DHT22;1893;52.526;13.360;2023-06-26T13:49:41;29.70;99.90
3756;DHT22;1893;52.526;13.360;2023-06-26T13:52:06;29.70;99.90
3756;DHT22;1893;52.526;13.360;2023-06-26T13:54:38;29.70;99.90
3756;DHT22;1893;52.526;13.360;2023-06-26T13:57:06;29.70;99.90
3756;DHT22;1893;52.526;13.360;2023-06-26T13:59:32;29.60;99.90
3756;DHT22;1893;52.526;13.360;2023-06-26T14:01:58;29.60;99.90
3756;DHT22;1893;52.526;13.360;2023-06-26T14:04:24;29.60;99.90
3756;DHT22;1893;52.526;13.360;2023-06-26T14:06:50;29.50;99.90
3756;DHT22;1893;52.526;13.360;2023-06-26T14:09:16;29.40;99.90
3756;DHT22;1893;52.526;13.360;2023-06-26T14:11:41;29.20;99.90
3756;DHT22;1893;52.526;13.360;2023-06-26T14:14:08;29.00;99.90
3756;DHT22;1893;52.526;13.360;2023-06-26T14:16:34;28.80;99.90
3756;DHT22;1893;52.526;13.360;2023-06-26T14:18:59;28.60;99.90
3756;DHT22;1893;52.526;13.360;2023-06-26T14:21:25;28.10;99.90
3756;DHT22;1893;52.526;13.360;2023-06-26T14:23:53;27.10;99.90
3756;DHT22;1893;52.526;13.360;2023-06-26T14:26:19;25.20;99.90
3756;DHT22;1893;52.526;13.360;2023-06-26T14:28:44;23.00;99.90
3756;DHT22;1893;52.526;13.360;2023-06-26T14:31:10;22.10;1.00
3756;DHT22;1893;52.526;13.360;2023-06-26T14:33:36;20.50;1.00
3756;DHT22;1893;52.526;13.360;2023-06-26T14:36:02;19.90;80.90
3756;DHT22;1893;52.526;13.360;2023-06-26T14:38:28;19.60;99.90
3756;DHT22;1893;52.526;13.360;2023-06-26T14:40:53;19.50;99.90
3756;DHT22;1893;52.526;13.360;2023-06-26T14:43:19;19.60;99.90
3756;DHT22;1893;52.526;13.360;2023-06-26T14:45:44;19.70;99.90
3756;DHT22;1893;52.526;13.360;2023-06-26T14:48:10;19.60;99.90
3756;DHT22;1893;52.526;13.360;2023-06-26T14:50:35;19.70;99.90
3756;DHT22;1893;52.526;13.360;2023-06-26T14:53:01;19.80;99.90
3756;DHT22;1893;52.526;13.360;2023-06-26T14:55:27;19.70;99.90
3756;DHT22;1893;52.526;13.360;2023-06-26T14:57:53;19.90;99.90
3756;DHT22;1893;52.526;13.360;2023-06-26T15:00:19;20.00;99.90
3756;DHT22;1893;52.526;13.360;2023-06-26T15:02:45;20.10;99.90
3756;DHT22;1893;52.526;13.360;2023-06-26T15:05:10;20.10;99.90
3756;DHT22;1893;52.526;13.360;2023-06-26T15:07:36;20.00;99.90
3756;DHT22;1893;52.526;13.360;2023-06-26T15:10:02;20.00;99.90
3756;DHT22;1893;52.526;13.360;2023-06-26T15:12:27;19.80;99.90
3756;DHT22;1893;52.526;13.360;2023-06-26T15:14:53;19.60;99.90
3756;DHT22;1893;52.526;13.360;2023-06-26T15:17:19;19.40;99.90
3756;DHT22;1893;52.526;13.360;2023-06-26T15:19:44;19.40;99.90
3756;DHT22;1893;52.526;13.360;2023-06-26T15:22:10;19.20;99.90
3756;DHT22;1893;52.526;13.360;2023-06-26T15:24:35;19.20;99.90
3756;DHT22;1893;52.526;13.360;2023-06-26T15:27:01;19.20;99.90
3756;DHT22;1893;52.526;13.360;2023-06-26T15:29:27;19.20;99.90
3756;DHT22;1893;52.526;13.360;2023-06-26T15:31:53;19.40;99.90
3756;DHT22;1893;52.526;13.360;2023-06-26T15:34:22;19.30;99.90
3756;DHT22;1893;52.526;13.360;2023-06-26T15:36:48;19.40;99.90
3756;DHT22;1893;52.526;13.360;2023-06-26T15:39:13;19.50;99.90
3756;DHT22;1893;52.526;13.360;2023-06-26T15:41:39;19.60;99.90
3756;DHT22;1893;52.526;13.360;2023-06-26T15:44:05;19.70;99.90
3756;DHT22;1893;52.526;13.360;2023-06-26T15:46:30;19.80;99.90
3756;DHT22;1893;52.526;13.360;2023-06-26T15:48:56;19.90;99.90
3756;DHT22;1893;52.526;13.360;2023-06-26T15:51:21;19.90;99.90
3756;DHT22;1893;52.526;13.360;2023-06-26T15:53:47;19.90;99.90
3756;DHT22;1893;52.526;13.360;2023-06-26T15:56:13;19.90;99.90
3756;DHT22;1893;52.526;13.360;2023-06-26T15:58:39;20.00;99.90
3756;DHT22;1893;52.526;13.360;2023-06-26T16:01:10;20.00;99.90